Time,TemperatureF,DewpointF,PressureIn,WindDirection,WindDirectionDegrees,WindSpeedMPH,WindSpeedGustMPH,Humidity,HourlyPrecipIn,Conditions,Clouds,dailyrainin,SoftwareType,DateUTC
2013-04-09 00:00:00,60.9,57.6,29.74,East,91,0.0,0.0,89,0.00,,,0.14,Wunderground v.1.15,2013-04-09 05:00:00,
2013-04-09 00:05:00,60.8,57.5,29.74,East,91,0.0,0.0,89,0.00,,,0.00,Wunderground v.1.15,2013-04-09 05:05:00,
2013-04-09 00:10:00,60.5,57.6,29.74,ESE,113,0.0,0.0,90,0.25,,,0.02,Wunderground v.1.15,2013-04-09 05:10:00,
2013-04-09 00:15:00,60.2,57.3,29.74,East,81,1.0,1.0,90,0.08,,,0.02,Wunderground v.1.15,2013-04-09 05:15:00,
2013-04-09 00:20:00,60.1,57.5,29.74,ENE,74,1.0,1.0,91,0.05,,,0.03,Wunderground v.1.15,2013-04-09 05:20:00,
2013-04-09 00:30:00,60.3,58.3,29.73,East,95,2.0,3.0,93,0.16,,,0.06,Wunderground v.1.15,2013-04-09 05:30:00,
2013-04-09 00:40:00,60.5,58.8,29.74,East,97,5.0,5.0,94,1.66,,,0.14,Wunderground v.1.15,2013-04-09 05:40:00,
2013-04-09 00:45:00,60.0,58.3,29.73,ESE,115,5.0,8.0,94,0.47,,,0.27,Wunderground v.1.15,2013-04-09 05:45:00,
2013-04-09 00:50:00,59.5,57.8,29.74,ESE,107,6.0,6.0,94,0.37,,,0.31,Wunderground v.1.15,2013-04-09 05:50:00,
2013-04-09 00:55:00,59.2,57.5,29.72,NE,53,7.0,8.0,94,0.19,,,0.33,Wunderground v.1.15,2013-04-09 05:55:00,
2013-04-09 01:00:00,59.0,57.3,29.73,East,86,6.0,6.0,94,0.07,,,0.33,Wunderground v.1.15,2013-04-09 06:00:00,
2013-04-09 01:05:00,58.9,57.2,29.72,ENE,78,6.0,8.0,94,0.05,,,0.33,Wunderground v.1.15,2013-04-09 06:05:00,
2013-04-09 01:10:00,58.9,57.2,29.72,East,80,6.0,7.0,94,0.00,,,0.33,Wunderground v.1.15,2013-04-09 06:10:00,
2013-04-09 01:20:00,59.8,57.2,29.72,East,89,5.0,11.0,91,0.00,,,0.33,Wunderground v.1.15,2013-04-09 06:20:00,
2013-04-09 01:25:00,60.5,57.2,29.71,East,82,7.0,11.0,89,0.00,,,0.33,Wunderground v.1.15,2013-04-09 06:25:00,
2013-04-09 01:30:00,60.5,56.9,29.71,ENE,78,8.0,10.0,88,0.00,,,0.33,Wunderground v.1.15,2013-04-09 06:30:00,
2013-04-09 01:35:00,60.2,56.9,29.71,ENE,77,6.0,10.0,89,0.00,,,0.33,Wunderground v.1.15,2013-04-09 06:35:00,
2013-04-09 01:40:00,59.6,57.0,29.71,ENE,61,6.0,6.0,91,0.00,,,0.33,Wunderground v.1.15,2013-04-09 06:40:00,
2013-04-09 01:50:00,58.7,56.7,29.70,ENE,76,5.0,5.0,93,0.00,,,0.33,Wunderground v.1.15,2013-04-09 06:50:00,
2013-04-09 01:55:00,58.5,56.5,29.70,ENE,76,4.0,5.0,93,0.00,,,0.33,Wunderground v.1.15,2013-04-09 06:55:00,
2013-04-09 02:05:00,58.7,55.8,29.70,East,87,6.0,7.0,90,0.00,,,0.34,Wunderground v.1.15,2013-04-09 07:05:00,
2013-04-09 02:10:00,58.7,55.8,29.70,East,80,6.0,6.0,90,0.00,,,0.34,Wunderground v.1.15,2013-04-09 07:10:00,
2013-04-09 02:15:00,58.5,55.3,29.70,ENE,78,6.0,10.0,89,0.00,,,0.34,Wunderground v.1.15,2013-04-09 07:15:00,
2013-04-09 02:20:00,58.5,55.6,29.69,East,81,6.0,6.0,90,0.00,,,0.34,Wunderground v.1.15,2013-04-09 07:20:00,
2013-04-09 02:30:00,58.0,55.4,29.69,ENE,78,6.0,8.0,91,0.00,,,0.35,Wunderground v.1.15,2013-04-09 07:30:00,
2013-04-09 02:35:00,57.8,55.5,29.69,ENE,72,6.0,8.0,92,0.00,,,0.35,Wunderground v.1.15,2013-04-09 07:35:00,
2013-04-09 02:40:00,57.8,55.5,29.68,ENE,74,7.0,7.0,92,0.00,,,0.35,Wunderground v.1.15,2013-04-09 07:40:00,
2013-04-09 02:45:00,57.7,55.7,29.69,East,84,6.0,7.0,93,0.00,,,0.35,Wunderground v.1.15,2013-04-09 07:45:00,
2013-04-09 02:50:00,57.7,55.7,29.69,East,80,6.0,6.0,93,0.00,,,0.35,Wunderground v.1.15,2013-04-09 07:50:00,
2013-04-09 02:55:00,57.7,55.7,29.70,East,87,5.0,6.0,93,0.00,,,0.35,Wunderground v.1.15,2013-04-09 07:55:00,
2013-04-09 03:05:00,58.2,56.2,29.71,West,277,5.0,6.0,93,0.00,,,0.35,Wunderground v.1.15,2013-04-09 08:05:00,
2013-04-09 03:10:00,57.8,55.5,29.72,NW,309,2.0,2.0,92,0.00,,,0.35,Wunderground v.1.15,2013-04-09 08:10:00,
2013-04-09 03:15:00,57.3,55.3,29.72,WNW,288,1.0,2.0,93,0.00,,,0.35,Wunderground v.1.15,2013-04-09 08:15:00,
2013-04-09 03:20:00,57.0,55.0,29.71,NW,304,0.0,0.0,93,0.00,,,0.35,Wunderground v.1.15,2013-04-09 08:20:00,
2013-04-09 03:30:00,57.1,55.4,29.70,NW,304,0.0,0.0,94,0.00,,,0.35,Wunderground v.1.15,2013-04-09 08:30:00,
2013-04-09 03:35:00,58.0,56.6,29.70,ENE,68,1.0,3.0,95,0.00,,,0.35,Wunderground v.1.15,2013-04-09 08:35:00,
2013-04-09 03:40:00,58.5,56.8,29.71,East,90,1.0,1.0,94,0.00,,,0.35,Wunderground v.1.15,2013-04-09 08:40:00,
2013-04-09 03:45:00,58.5,56.2,29.71,West,259,1.0,3.0,92,0.00,,,0.35,Wunderground v.1.15,2013-04-09 08:45:00,
2013-04-09 03:50:00,57.6,55.3,29.71,NW,314,2.0,2.0,92,0.00,,,0.35,Wunderground v.1.15,2013-04-09 08:50:00,
2013-04-09 04:00:00,57.0,55.0,29.70,NE,53,0.0,0.0,93,0.00,,,0.35,Wunderground v.1.15,2013-04-09 09:00:00,
2013-04-09 04:05:00,57.0,55.3,29.71,NE,54,0.0,0.0,94,0.00,,,0.35,Wunderground v.1.15,2013-04-09 09:05:00,
2013-04-09 04:10:00,57.1,55.4,29.71,NE,53,0.0,0.0,94,0.00,,,0.35,Wunderground v.1.15,2013-04-09 09:10:00,
2013-04-09 04:20:00,56.9,55.2,29.71,NE,44,0.0,0.0,94,0.00,,,0.35,Wunderground v.1.15,2013-04-09 09:20:00,
2013-04-09 04:25:00,56.6,54.9,29.71,NE,51,0.0,0.0,94,0.00,,,0.35,Wunderground v.1.15,2013-04-09 09:25:00,
2013-04-09 04:35:00,56.6,55.2,29.71,NE,49,0.0,0.0,95,0.00,,,0.35,Wunderground v.1.15,2013-04-09 09:35:00,
2013-04-09 04:40:00,56.4,54.7,29.71,ENE,60,1.0,3.0,94,0.00,,,0.35,Wunderground v.1.15,2013-04-09 09:40:00,
2013-04-09 04:45:00,56.1,54.4,29.71,NE,49,3.0,5.0,94,0.00,,,0.35,Wunderground v.1.15,2013-04-09 09:45:00,
2013-04-09 04:50:00,56.1,54.7,29.71,ENE,60,4.0,5.0,95,0.00,,,0.35,Wunderground v.1.15,2013-04-09 09:50:00,
2013-04-09 05:00:00,56.3,54.9,29.71,NE,37,4.0,4.0,95,0.00,,,0.35,Wunderground v.1.15,2013-04-09 10:00:00,
2013-04-09 05:05:00,56.3,54.9,29.71,ENE,61,3.0,4.0,95,0.00,,,0.35,Wunderground v.1.15,2013-04-09 10:05:00,
2013-04-09 05:15:00,56.4,55.0,29.70,ENE,57,4.0,4.0,95,0.00,,,0.35,Wunderground v.1.15,2013-04-09 10:15:00,
2013-04-09 05:20:00,56.4,55.0,29.71,ENE,71,5.0,7.0,95,0.00,,,0.35,Wunderground v.1.15,2013-04-09 10:20:00,
2013-04-09 05:25:00,56.4,55.0,29.71,East,91,6.0,7.0,95,0.00,,,0.35,Wunderground v.1.15,2013-04-09 10:25:00,
2013-04-09 05:30:00,56.4,55.0,29.70,NE,53,6.0,6.0,95,0.00,,,0.35,Wunderground v.1.15,2013-04-09 10:30:00,
2013-04-09 05:40:00,56.4,55.0,29.70,ENE,63,5.0,5.0,95,0.00,,,0.35,Wunderground v.1.15,2013-04-09 10:40:00,
2013-04-09 05:50:00,56.2,54.8,29.70,ENE,61,4.0,4.0,95,0.00,,,0.35,Wunderground v.1.15,2013-04-09 10:50:00,
2013-04-09 05:55:00,56.1,54.7,29.70,ENE,75,5.0,8.0,95,0.00,,,0.36,Wunderground v.1.15,2013-04-09 10:55:00,
2013-04-09 06:00:00,56.0,54.6,29.70,ENE,73,5.0,5.0,95,0.00,,,0.36,Wunderground v.1.15,2013-04-09 11:00:00,
2013-04-09 06:10:00,55.9,54.5,29.71,ENE,67,4.0,4.0,95,0.00,,,0.36,Wunderground v.1.15,2013-04-09 11:10:00,
2013-04-09 06:15:00,55.8,54.4,29.70,East,89,5.0,8.0,95,0.00,,,0.36,Wunderground v.1.15,2013-04-09 11:15:00,
2013-04-09 06:20:00,55.7,54.6,29.70,ENE,69,6.0,9.0,96,0.00,,,0.36,Wunderground v.1.15,2013-04-09 11:20:00,
2013-04-09 06:25:00,55.7,54.6,29.70,ENE,74,7.0,9.0,96,0.00,,,0.36,Wunderground v.1.15,2013-04-09 11:25:00,
2013-04-09 06:30:00,55.5,54.4,29.70,East,84,8.0,10.0,96,0.00,,,0.36,Wunderground v.1.15,2013-04-09 11:30:00,
2013-04-09 06:35:00,55.5,54.4,29.70,ENE,78,8.0,10.0,96,0.00,,,0.36,Wunderground v.1.15,2013-04-09 11:35:00,
2013-04-09 06:45:00,55.2,54.1,29.70,ENE,63,7.0,9.0,96,0.00,,,0.36,Wunderground v.1.15,2013-04-09 11:45:00,
2013-04-09 06:55:00,55.0,53.9,29.70,ENE,72,9.0,9.0,96,0.00,,,0.36,Wunderground v.1.15,2013-04-09 11:55:00,
2013-04-09 07:00:00,54.9,53.8,29.70,ENE,66,8.0,8.0,96,0.00,,,0.36,Wunderground v.1.15,2013-04-09 12:00:00,
2013-04-09 07:05:00,54.6,53.5,29.70,East,79,7.0,8.0,96,0.00,,,0.36,Wunderground v.1.15,2013-04-09 12:05:00,
2013-04-09 07:15:00,54.5,53.4,29.70,East,92,8.0,9.0,96,0.00,,,0.36,Wunderground v.1.15,2013-04-09 12:15:00,
2013-04-09 07:20:00,54.5,53.4,29.70,East,85,7.0,9.0,96,0.00,,,0.36,Wunderground v.1.15,2013-04-09 12:20:00,
2013-04-09 07:25:00,54.6,53.5,29.70,East,83,7.0,9.0,96,0.00,,,0.36,Wunderground v.1.15,2013-04-09 12:25:00,
2013-04-09 07:30:00,54.5,53.4,29.70,ENE,75,7.0,15.0,96,0.00,,,0.36,Wunderground v.1.15,2013-04-09 12:30:00,
2013-04-09 07:35:00,54.4,53.3,29.70,ENE,67,7.0,15.0,96,0.00,,,0.36,Wunderground v.1.15,2013-04-09 12:35:00,
2013-04-09 07:40:00,54.4,53.3,29.70,East,92,9.0,9.0,96,0.00,,,0.36,Wunderground v.1.15,2013-04-09 12:40:00,
2013-04-09 07:45:00,54.3,53.2,29.70,ENE,71,9.0,9.0,96,0.00,,,0.36,Wunderground v.1.15,2013-04-09 12:45:00,
2013-04-09 07:50:00,54.3,53.2,29.70,East,82,9.0,10.0,96,0.00,,,0.36,Wunderground v.1.15,2013-04-09 12:50:00,
2013-04-09 07:55:00,54.1,53.0,29.70,ENE,71,9.0,10.0,96,0.00,,,0.36,Wunderground v.1.15,2013-04-09 12:55:00,
2013-04-09 08:05:00,54.1,53.0,29.69,ENE,75,8.0,9.0,96,0.00,,,0.36,Wunderground v.1.15,2013-04-09 13:05:00,
2013-04-09 08:10:00,54.2,53.4,29.69,East,88,7.0,7.0,97,0.00,,,0.36,Wunderground v.1.15,2013-04-09 13:10:00,
2013-04-09 08:15:00,54.2,53.4,29.69,ENE,68,7.0,9.0,97,0.00,,,0.36,Wunderground v.1.15,2013-04-09 13:15:00,
2013-04-09 08:20:00,54.3,53.5,29.69,East,88,8.0,14.0,97,0.00,,,0.36,Wunderground v.1.15,2013-04-09 13:20:00,
2013-04-09 08:25:00,54.2,53.1,29.69,East,98,9.0,14.0,96,0.00,,,0.36,Wunderground v.1.15,2013-04-09 13:25:00,
2013-04-09 08:30:00,54.2,53.1,29.69,ESE,114,8.0,8.0,96,0.00,,,0.36,Wunderground v.1.15,2013-04-09 13:30:00,
2013-04-09 08:35:00,54.1,53.0,29.69,East,92,6.0,10.0,96,0.00,,,0.36,Wunderground v.1.15,2013-04-09 13:35:00,
2013-04-09 08:40:00,54.1,53.0,29.69,ENE,74,6.0,8.0,96,0.00,,,0.36,Wunderground v.1.15,2013-04-09 13:40:00,
2013-04-09 08:45:00,54.1,53.3,29.69,East,90,6.0,8.0,97,0.00,,,0.36,Wunderground v.1.15,2013-04-09 13:45:00,
2013-04-09 08:55:00,54.2,53.4,29.69,East,99,5.0,8.0,97,0.00,,,0.36,Wunderground v.1.15,2013-04-09 13:55:00,
2013-04-09 09:00:00,54.3,53.5,29.69,SE,128,6.0,8.0,97,0.00,,,0.36,Wunderground v.1.15,2013-04-09 14:00:00,
2013-04-09 09:05:00,54.3,53.5,29.69,East,83,5.0,8.0,97,0.00,,,0.36,Wunderground v.1.15,2013-04-09 14:05:00,
2013-04-09 09:15:00,54.5,53.7,29.69,East,84,5.0,7.0,97,0.00,,,0.36,Wunderground v.1.15,2013-04-09 14:15:00,
2013-04-09 09:20:00,54.5,53.7,29.69,East,85,3.0,5.0,97,0.00,,,0.36,Wunderground v.1.15,2013-04-09 14:20:00,
2013-04-09 09:25:00,54.6,53.8,29.69,East,88,3.0,5.0,97,0.00,,,0.36,Wunderground v.1.15,2013-04-09 14:25:00,
2013-04-09 09:30:00,54.8,54.0,29.69,East,80,3.0,3.0,97,0.00,,,0.36,Wunderground v.1.15,2013-04-09 14:30:00,
2013-04-09 09:35:00,55.1,54.3,29.69,East,80,2.0,3.0,97,0.00,,,0.36,Wunderground v.1.15,2013-04-09 14:35:00,
2013-04-09 09:40:00,55.4,54.6,29.70,ESE,115,2.0,5.0,97,0.00,,,0.36,Wunderground v.1.15,2013-04-09 14:40:00,
2013-04-09 09:50:00,55.8,55.0,29.71,ESE,104,1.0,1.0,97,0.00,,,0.36,Wunderground v.1.15,2013-04-09 14:50:00,
2013-04-09 09:55:00,55.9,55.1,29.71,ESE,119,1.0,4.0,97,0.00,,,0.36,Wunderground v.1.15,2013-04-09 14:55:00,
2013-04-09 10:00:00,56.0,55.2,29.71,East,92,1.0,1.0,97,0.00,,,0.36,Wunderground v.1.15,2013-04-09 15:00:00,
2013-04-09 10:05:00,56.0,55.2,29.71,East,86,1.0,1.0,97,0.00,,,0.36,Wunderground v.1.15,2013-04-09 15:05:00,
2013-04-09 10:10:00,56.1,55.3,29.71,East,88,1.0,1.0,97,0.00,,,0.36,Wunderground v.1.15,2013-04-09 15:10:00,
2013-04-09 10:20:00,56.3,55.5,29.70,East,98,2.0,2.0,97,0.00,,,0.36,Wunderground v.1.15,2013-04-09 15:20:00,
2013-04-09 10:30:00,56.6,55.8,29.69,East,91,1.0,1.0,97,0.00,,,0.36,Wunderground v.1.15,2013-04-09 15:30:00,
2013-04-09 10:35:00,56.8,56.0,29.69,ESE,122,2.0,5.0,97,0.00,,,0.36,Wunderground v.1.15,2013-04-09 15:35:00,
2013-04-09 10:45:00,57.7,56.9,29.69,East,85,4.0,10.0,97,0.00,,,0.36,Wunderground v.1.15,2013-04-09 15:45:00,
2013-04-09 10:50:00,58.5,57.7,29.70,ENE,78,3.0,3.0,97,0.00,,,0.36,Wunderground v.1.15,2013-04-09 15:50:00,
2013-04-09 11:00:00,59.9,59.0,29.70,East,82,2.0,2.0,97,0.00,,,0.36,Wunderground v.1.15,2013-04-09 16:00:00,
2013-04-09 11:05:00,60.3,59.2,29.70,East,97,2.0,5.0,96,0.00,,,0.36,Wunderground v.1.15,2013-04-09 16:05:00,
2013-04-09 11:10:00,60.6,59.2,29.69,ENE,73,2.0,2.0,95,0.00,,,0.36,Wunderground v.1.15,2013-04-09 16:10:00,
2013-04-09 11:15:00,61.0,59.6,29.70,East,98,4.0,4.0,95,0.00,,,0.36,Wunderground v.1.15,2013-04-09 16:15:00,
2013-04-09 11:20:00,61.8,60.1,29.70,East,98,2.0,2.0,94,0.00,,,0.36,Wunderground v.1.15,2013-04-09 16:20:00,
2013-04-09 11:25:00,62.4,60.3,29.70,ESE,121,1.0,2.0,93,0.00,,,0.36,Wunderground v.1.15,2013-04-09 16:25:00,
2013-04-09 11:30:00,63.1,60.7,29.70,East,79,1.0,1.0,92,0.00,,,0.36,Wunderground v.1.15,2013-04-09 16:30:00,
2013-04-09 11:40:00,64.3,61.3,29.70,SSW,194,1.0,1.0,90,0.00,,,0.36,Wunderground v.1.15,2013-04-09 16:40:00,
2013-04-09 11:45:00,64.8,61.5,29.69,ESE,113,1.0,3.0,89,0.00,,,0.36,Wunderground v.1.15,2013-04-09 16:45:00,
2013-04-09 11:50:00,65.4,61.8,29.70,East,86,1.0,1.0,88,0.00,,,0.36,Wunderground v.1.15,2013-04-09 16:50:00,
2013-04-09 12:00:00,66.1,62.1,29.70,SE,125,0.0,0.0,87,0.00,,,0.36,Wunderground v.1.15,2013-04-09 17:00:00,
2013-04-09 12:10:00,66.2,61.6,29.70,SE,127,0.0,0.0,85,0.00,,,0.36,Wunderground v.1.15,2013-04-09 17:10:00,
2013-04-09 12:15:00,66.1,61.8,29.70,SE,127,0.0,0.0,86,0.00,,,0.36,Wunderground v.1.15,2013-04-09 17:15:00,
2013-04-09 12:20:00,66.0,61.7,29.70,SE,126,0.0,0.0,86,0.00,,,0.36,Wunderground v.1.15,2013-04-09 17:20:00,
2013-04-09 12:30:00,65.2,61.2,29.69,NE,40,0.0,0.0,87,0.00,,,0.36,Wunderground v.1.15,2013-04-09 17:30:00,
2013-04-09 12:35:00,65.0,61.4,29.69,NE,43,0.0,0.0,88,0.00,,,0.36,Wunderground v.1.15,2013-04-09 17:35:00,
2013-04-09 12:45:00,65.3,61.7,29.69,ENE,76,1.0,2.0,88,0.00,,,0.36,Wunderground v.1.15,2013-04-09 17:45:00,
2013-04-09 12:50:00,65.6,61.6,29.69,ENE,57,2.0,3.0,87,0.00,,,0.36,Wunderground v.1.15,2013-04-09 17:50:00,
2013-04-09 13:00:00,64.9,60.6,29.69,ENE,61,4.0,4.0,86,0.00,,,0.36,Wunderground v.1.15,2013-04-09 18:00:00,
2013-04-09 13:05:00,64.5,60.5,29.69,NE,56,3.0,4.0,87,0.00,,,0.36,Wunderground v.1.15,2013-04-09 18:05:00,
2013-04-09 13:10:00,63.5,59.2,29.69,NE,45,3.0,3.0,86,0.00,,,0.36,Wunderground v.1.15,2013-04-09 18:10:00,
2013-04-09 13:20:00,62.4,58.8,29.70,North,360,2.0,2.0,88,0.00,,,0.36,Wunderground v.1.15,2013-04-09 18:20:00,
2013-04-09 13:25:00,61.7,57.8,29.70,NNW,341,2.0,2.0,87,0.00,,,0.36,Wunderground v.1.15,2013-04-09 18:25:00,
2013-04-09 13:35:00,60.3,56.1,29.71,North,349,3.0,3.0,86,0.00,,,0.36,Wunderground v.1.15,2013-04-09 18:35:00,
2013-04-09 13:40:00,59.4,55.5,29.71,North,355,3.0,3.0,87,0.00,,,0.36,Wunderground v.1.15,2013-04-09 18:40:00,
2013-04-09 13:50:00,57.8,54.3,29.71,NNE,14,3.0,3.0,88,0.00,,,0.36,Wunderground v.1.15,2013-04-09 18:50:00,
2013-04-09 13:55:00,57.0,53.8,29.72,North,9,3.0,3.0,89,0.00,,,0.36,Wunderground v.1.15,2013-04-09 18:55:00,
2013-04-09 14:00:00,56.2,53.3,29.72,NNW,345,3.0,4.0,90,0.00,,,0.36,Wunderground v.1.15,2013-04-09 19:00:00,
2013-04-09 14:05:00,55.3,52.4,29.72,ENE,57,3.0,4.0,90,0.00,,,0.36,Wunderground v.1.15,2013-04-09 19:05:00,
2013-04-09 14:10:00,54.7,51.8,29.73,NNE,17,2.0,3.0,90,0.00,,,0.36,Wunderground v.1.15,2013-04-09 19:10:00,
2013-04-09 14:20:00,53.7,51.4,29.73,NE,42,2.0,2.0,92,0.00,,,0.36,Wunderground v.1.15,2013-04-09 19:20:00,
2013-04-09 14:25:00,53.3,50.7,29.73,NNE,32,2.0,2.0,91,0.00,,,0.36,Wunderground v.1.15,2013-04-09 19:25:00,
2013-04-09 14:30:00,52.9,50.6,29.74,NNW,338,3.0,3.0,92,0.00,,,0.36,Wunderground v.1.15,2013-04-09 19:30:00,
2013-04-09 14:35:00,52.4,49.8,29.74,NNE,32,3.0,4.0,91,0.00,,,0.36,Wunderground v.1.15,2013-04-09 19:35:00,
2013-04-09 14:45:00,51.1,48.6,29.74,NNE,23,4.0,4.0,91,0.00,,,0.36,Wunderground v.1.15,2013-04-09 19:45:00,
2013-04-09 14:50:00,50.7,48.5,29.74,NE,42,3.0,3.0,92,0.00,,,0.36,Wunderground v.1.15,2013-04-09 19:50:00,
2013-04-09 14:55:00,50.5,48.3,29.74,NNE,14,2.0,3.0,92,0.00,,,0.36,Wunderground v.1.15,2013-04-09 19:55:00,
2013-04-09 15:00:00,50.0,47.8,29.74,NE,34,2.0,2.0,92,0.00,,,0.36,Wunderground v.1.15,2013-04-09 20:00:00,
2013-04-09 15:15:00,49.7,47.8,29.74,NE,51,2.0,3.0,93,0.00,,,0.36,Wunderground v.1.15,2013-04-09 20:15:00,
2013-04-09 15:20:00,49.6,47.7,29.74,ENE,65,1.0,1.0,93,0.00,,,0.36,Wunderground v.1.15,2013-04-09 20:20:00,
2013-04-09 15:25:00,49.5,47.6,29.74,NNE,26,1.0,4.0,93,0.00,,,0.36,Wunderground v.1.15,2013-04-09 20:25:00,
2013-04-09 15:30:00,49.4,47.5,29.74,North,9,2.0,2.0,93,0.00,,,0.36,Wunderground v.1.15,2013-04-09 20:30:00,
2013-04-09 15:35:00,49.4,47.5,29.74,NE,48,2.0,2.0,93,0.00,,,0.36,Wunderground v.1.15,2013-04-09 20:35:00,
2013-04-09 15:50:00,49.0,47.1,29.74,NE,38,5.0,5.0,93,0.00,,,0.36,Wunderground v.1.15,2013-04-09 20:50:00,
2013-04-09 15:55:00,49.1,47.2,29.75,NE,49,4.0,5.0,93,0.00,,,0.36,Wunderground v.1.15,2013-04-09 20:55:00,
2013-04-09 16:05:00,49.1,47.2,29.74,ENE,67,2.0,2.0,93,0.00,,,0.36,Wunderground v.1.15,2013-04-09 21:05:00,
2013-04-09 16:10:00,49.0,47.1,29.75,NE,42,3.0,4.0,93,0.00,,,0.36,Wunderground v.1.15,2013-04-09 21:10:00,
2013-04-09 16:15:00,49.1,47.4,29.75,ENE,59,3.0,5.0,94,0.00,,,0.36,Wunderground v.1.15,2013-04-09 21:15:00,
2013-04-09 16:25:00,48.6,46.7,29.75,NNE,26,4.0,9.0,93,0.00,,,0.36,Wunderground v.1.15,2013-04-09 21:25:00,
2013-04-09 16:30:00,48.6,47.0,29.76,NE,45,3.0,3.0,94,0.00,,,0.36,Wunderground v.1.15,2013-04-09 21:30:00,
2013-04-09 16:40:00,48.2,46.3,29.76,NNE,25,3.0,3.0,93,0.00,,,0.36,Wunderground v.1.15,2013-04-09 21:40:00,
2013-04-09 16:45:00,48.1,46.5,29.76,ENE,58,3.0,3.0,94,0.00,,,0.36,Wunderground v.1.15,2013-04-09 21:45:00,
2013-04-09 16:55:00,48.1,46.5,29.76,NNE,29,2.0,2.0,94,0.00,,,0.36,Wunderground v.1.15,2013-04-09 21:55:00,
2013-04-09 17:00:00,47.8,45.9,29.76,NE,42,2.0,2.0,93,0.00,,,0.36,Wunderground v.1.15,2013-04-09 22:00:00,
2013-04-09 17:10:00,47.2,45.6,29.76,East,84,4.0,7.0,94,0.00,,,0.36,Wunderground v.1.15,2013-04-09 22:10:00,
2013-04-09 17:20:00,46.8,45.2,29.76,NE,46,3.0,5.0,94,0.00,,,0.36,Wunderground v.1.15,2013-04-09 22:20:00,
2013-04-09 17:25:00,46.7,45.1,29.76,NE,49,5.0,5.0,94,0.00,,,0.36,Wunderground v.1.15,2013-04-09 22:25:00,
2013-04-09 17:30:00,46.7,45.1,29.76,ENE,59,4.0,4.0,94,0.00,,,0.36,Wunderground v.1.15,2013-04-09 22:30:00,
2013-04-09 17:35:00,46.5,44.9,29.76,ENE,67,3.0,4.0,94,0.00,,,0.36,Wunderground v.1.15,2013-04-09 22:35:00,
2013-04-09 17:40:00,46.2,44.6,29.76,NNE,32,5.0,5.0,94,0.00,,,0.36,Wunderground v.1.15,2013-04-09 22:40:00,
2013-04-09 17:50:00,45.9,44.3,29.74,ENE,75,4.0,7.0,94,0.00,,,0.36,Wunderground v.1.15,2013-04-09 22:50:00,
2013-04-09 17:55:00,45.9,44.5,29.75,NE,55,6.0,7.0,95,0.00,,,0.36,Wunderground v.1.15,2013-04-09 22:55:00,
2013-04-09 18:00:00,45.9,44.5,29.75,NE,53,7.0,7.0,95,0.00,,,0.36,Wunderground v.1.15,2013-04-09 23:00:00,
2013-04-09 18:05:00,45.6,44.3,29.74,ENE,65,5.0,7.0,95,0.00,,,0.36,Wunderground v.1.15,2013-04-09 23:05:00,
2013-04-09 18:15:00,45.3,44.0,29.74,ENE,59,6.0,6.0,95,0.00,,,0.36,Wunderground v.1.15,2013-04-09 23:15:00,
2013-04-09 18:20:00,45.3,44.0,29.74,NE,56,5.0,5.0,95,0.00,,,0.36,Wunderground v.1.15,2013-04-09 23:20:00,
2013-04-09 18:25:00,44.9,43.6,29.74,NE,55,6.0,8.0,95,0.00,,,0.36,Wunderground v.1.15,2013-04-09 23:25:00,
2013-04-09 18:30:00,44.6,43.3,29.74,NNE,33,7.0,10.0,95,0.00,,,0.36,Wunderground v.1.15,2013-04-09 23:30:00,
2013-04-09 18:35:00,44.5,43.2,29.75,ENE,68,5.0,10.0,95,0.00,,,0.36,Wunderground v.1.15,2013-04-09 23:35:00,
2013-04-09 18:40:00,44.6,43.3,29.76,NE,54,5.0,5.0,95,0.00,,,0.36,Wunderground v.1.15,2013-04-09 23:40:00,
2013-04-09 18:50:00,44.3,43.0,29.76,ENE,72,4.0,8.0,95,0.00,,,0.36,Wunderground v.1.15,2013-04-09 23:50:00,
2013-04-09 18:55:00,44.1,42.8,29.76,NNE,20,5.0,8.0,95,0.00,,,0.36,Wunderground v.1.15,2013-04-09 23:55:00,
2013-04-09 19:00:00,44.1,42.8,29.76,NE,51,5.0,5.0,95,0.00,,,0.36,Wunderground v.1.15,2013-04-10 00:00:00,
2013-04-09 19:05:00,44.0,42.7,29.76,NE,46,6.0,6.0,95,0.00,,,0.36,Wunderground v.1.15,2013-04-10 00:05:00,
2013-04-09 19:10:00,43.8,42.5,29.77,ENE,72,6.0,14.0,95,0.00,,,0.36,Wunderground v.1.15,2013-04-10 00:10:00,
2013-04-09 19:15:00,43.6,42.3,29.77,NE,40,5.0,14.0,95,0.00,,,0.36,Wunderground v.1.15,2013-04-10 00:15:00,
2013-04-09 19:20:00,43.6,42.3,29.77,ENE,63,5.0,5.0,95,0.00,,,0.36,Wunderground v.1.15,2013-04-10 00:20:00,
2013-04-09 19:25:00,43.5,42.2,29.77,ENE,71,5.0,5.0,95,0.00,,,0.36,Wunderground v.1.15,2013-04-10 00:25:00,
2013-04-09 19:35:00,43.5,42.2,29.77,NE,55,5.0,8.0,95,0.00,,,0.36,Wunderground v.1.15,2013-04-10 00:35:00,
2013-04-09 19:40:00,43.5,42.2,29.78,NE,53,5.0,6.0,95,0.00,,,0.36,Wunderground v.1.15,2013-04-10 00:40:00,
2013-04-09 19:45:00,43.5,42.2,29.78,NE,53,5.0,9.0,95,0.00,,,0.36,Wunderground v.1.15,2013-04-10 00:45:00,
2013-04-09 19:50:00,43.5,42.2,29.78,ENE,71,5.0,5.0,95,0.00,,,0.36,Wunderground v.1.15,2013-04-10 00:50:00,
2013-04-09 19:55:00,43.5,42.2,29.79,NE,38,4.0,7.0,95,0.00,,,0.36,Wunderground v.1.15,2013-04-10 00:55:00,
2013-04-09 20:00:00,43.5,42.2,29.79,NE,53,5.0,9.0,95,0.00,,,0.36,Wunderground v.1.15,2013-04-10 01:00:00,
2013-04-09 20:10:00,43.4,42.1,29.79,ENE,61,4.0,10.0,95,0.00,,,0.37,Wunderground v.1.15,2013-04-10 01:10:00,
2013-04-09 20:15:00,43.2,41.9,29.79,ENE,61,5.0,10.0,95,0.00,,,0.37,Wunderground v.1.15,2013-04-10 01:15:00,
2013-04-09 20:20:00,43.1,41.8,29.80,ENE,57,6.0,6.0,95,0.00,,,0.37,Wunderground v.1.15,2013-04-10 01:20:00,
2013-04-09 20:25:00,43.1,41.8,29.80,NE,41,5.0,6.0,95,0.00,,,0.37,Wunderground v.1.15,2013-04-10 01:25:00,
2013-04-09 20:30:00,43.1,42.0,29.80,ENE,61,4.0,4.0,96,0.00,,,0.37,Wunderground v.1.15,2013-04-10 01:30:00,
2013-04-09 20:35:00,43.2,42.1,29.80,East,91,6.0,8.0,96,0.00,,,0.37,Wunderground v.1.15,2013-04-10 01:35:00,
2013-04-09 20:40:00,43.2,42.1,29.80,ENE,57,7.0,7.0,96,0.00,,,0.37,Wunderground v.1.15,2013-04-10 01:40:00,
2013-04-09 20:45:00,43.2,42.1,29.80,ENE,65,5.0,7.0,96,0.00,,,0.38,Wunderground v.1.15,2013-04-10 01:45:00,
2013-04-09 20:55:00,43.3,42.2,29.80,ENE,63,5.0,8.0,96,0.00,,,0.38,Wunderground v.1.15,2013-04-10 01:55:00,
2013-04-09 21:00:00,43.2,42.1,29.80,NE,47,5.0,5.0,96,0.00,,,0.38,Wunderground v.1.15,2013-04-10 02:00:00,
2013-04-09 21:05:00,43.3,42.2,29.80,NE,52,6.0,6.0,96,0.00,,,0.38,Wunderground v.1.15,2013-04-10 02:05:00,
2013-04-09 21:10:00,43.3,42.2,29.81,East,95,7.0,9.0,96,0.00,,,0.38,Wunderground v.1.15,2013-04-10 02:10:00,
2013-04-09 21:15:00,43.4,42.3,29.82,ENE,69,6.0,9.0,96,0.00,,,0.38,Wunderground v.1.15,2013-04-10 02:15:00,
2013-04-09 21:25:00,43.4,42.3,29.82,ENE,72,8.0,14.0,96,0.00,,,0.38,Wunderground v.1.15,2013-04-10 02:25:00,
2013-04-09 21:30:00,43.5,42.4,29.81,ENE,78,9.0,9.0,96,0.00,,,0.38,Wunderground v.1.15,2013-04-10 02:30:00,
2013-04-09 21:35:00,43.5,42.4,29.81,ENE,63,9.0,13.0,96,0.00,,,0.38,Wunderground v.1.15,2013-04-10 02:35:00,
2013-04-09 21:40:00,43.5,42.4,29.80,ENE,72,9.0,10.0,96,0.00,,,0.38,Wunderground v.1.15,2013-04-10 02:40:00,
2013-04-09 21:50:00,43.5,42.4,29.79,ENE,71,8.0,8.0,96,0.00,,,0.38,Wunderground v.1.15,2013-04-10 02:50:00,
2013-04-09 21:55:00,43.5,42.4,29.79,East,83,8.0,8.0,96,0.00,,,0.38,Wunderground v.1.15,2013-04-10 02:55:00,
2013-04-09 22:00:00,43.5,42.4,29.79,East,92,8.0,8.0,96,0.00,,,0.38,Wunderground v.1.15,2013-04-10 03:00:00,
2013-04-09 22:05:00,43.6,42.5,29.79,ENE,75,7.0,8.0,96,0.00,,,0.38,Wunderground v.1.15,2013-04-10 03:05:00,
2013-04-09 22:10:00,43.6,42.5,29.79,ENE,77,6.0,6.0,96,0.00,,,0.38,Wunderground v.1.15,2013-04-10 03:10:00,
2013-04-09 22:15:00,43.7,42.6,29.79,ENE,72,6.0,6.0,96,0.00,,,0.38,Wunderground v.1.15,2013-04-10 03:15:00,
2013-04-09 22:20:00,43.7,42.6,29.81,NE,51,4.0,4.0,96,0.00,,,0.38,Wunderground v.1.15,2013-04-10 03:20:00,
2013-04-09 22:25:00,43.7,42.6,29.83,NNW,336,1.0,4.0,96,0.00,,,0.38,Wunderground v.1.15,2013-04-10 03:25:00,
2013-04-09 22:30:00,43.7,42.6,29.83,NNW,342,0.0,0.0,96,0.00,,,0.38,Wunderground v.1.15,2013-04-10 03:30:00,
2013-04-09 22:35:00,43.7,42.6,29.83,NE,51,0.0,0.0,96,0.00,,,0.38,Wunderground v.1.15,2013-04-10 03:35:00,
2013-04-09 22:45:00,43.7,42.6,29.83,NNE,15,0.0,0.0,96,0.00,,,0.38,Wunderground v.1.15,2013-04-10 03:45:00,
2013-04-09 22:55:00,43.6,42.5,29.84,NE,42,0.0,0.0,96,0.00,,,0.38,Wunderground v.1.15,2013-04-10 03:55:00,
2013-04-09 23:00:00,43.6,42.5,29.83,NNE,13,0.0,0.0,96,0.00,,,0.38,Wunderground v.1.15,2013-04-10 04:00:00,
2013-04-09 23:05:00,43.5,42.4,29.83,NE,38,0.0,0.0,96,0.00,,,0.38,Wunderground v.1.15,2013-04-10 04:05:00,
2013-04-09 23:10:00,43.4,42.3,29.83,NE,46,1.0,1.0,96,0.00,,,0.38,Wunderground v.1.15,2013-04-10 04:10:00,
2013-04-09 23:15:00,43.3,42.2,29.83,NE,52,2.0,3.0,96,0.00,,,0.38,Wunderground v.1.15,2013-04-10 04:15:00,
2013-04-09 23:20:00,43.3,42.2,29.83,NNE,16,3.0,3.0,96,0.00,,,0.38,Wunderground v.1.15,2013-04-10 04:20:00,
2013-04-09 23:25:00,43.3,42.2,29.83,North,5,2.0,3.0,96,0.00,,,0.38,Wunderground v.1.15,2013-04-10 04:25:00,
2013-04-09 23:30:00,43.2,42.1,29.82,NE,53,2.0,5.0,96,0.00,,,0.38,Wunderground v.1.15,2013-04-10 04:30:00,
2013-04-09 23:40:00,43.1,42.0,29.81,ENE,63,5.0,5.0,96,0.19,,,0.41,Wunderground v.1.15,2013-04-10 04:40:00,
2013-04-09 23:45:00,43.1,42.0,29.81,NE,41,4.0,5.0,96,0.12,,,0.42,Wunderground v.1.15,2013-04-10 04:45:00,
2013-04-09 23:55:00,43.0,41.9,29.82,NE,40,3.0,4.0,96,0.05,,,0.42,Wunderground v.1.15,2013-04-10 04:55:00,